Time;durP1;ratioP1;P1;durP2;ratioP2;P2;SDS_P1;SDS_P2;PMS_P1;PMS_P2;Temp;Humidity;BMP_temperature;BMP_pressure;BME280_temperature;BME280_humidity;BME280_pressure;Samples;Min_cycle;Max_cycle;Signal;HPM_P1;HPM_P2
2022/12/12 00:01:17;;;;;;;22.15;12.48;;;0.00;99.90;;;;;;5014135;28;20479;-62
2022/12/12 00:03:44;;;;;;;25.73;11.85;;;0.00;99.90;;;;;;5032060;28;20444;-62
2022/12/12 00:06:11;;;;;;;23.65;12.23;;;0.10;99.90;;;;;;5013662;28;20049;-64
2022/12/12 00:08:38;;;;;;;22.77;12.57;;;0.00;99.90;;;;;;5031791;28;20444;-64
2022/12/12 00:11:06;;;;;;;22.58;13.02;;;0.00;99.90;;;;;;5031598;28;20056;-64
2022/12/12 00:13:33;;;;;;;21.90;11.70;;;0.10;99.90;;;;;;5033146;28;20053;-63
2022/12/12 00:16:01;;;;;;;23.02;12.15;;;0.10;99.90;;;;;;5033907;28;20049;-64
2022/12/12 00:18:28;;;;;;;22.95;12.50;;;0.10;99.90;;;;;;5033668;28;20052;-64
2022/12/12 00:20:56;;;;;;;23.77;12.00;;;0.10;99.90;;;;;;5066072;28;20107;-64
2022/12/12 00:23:24;;;;;;;25.52;13.07;;;0.10;99.90;;;;;;5049638;28;20049;-64
2022/12/12 00:25:55;;;;;;;24.88;12.65;;;0.10;99.90;;;;;;5033356;28;20095;-64
2022/12/12 00:28:22;;;;;;;22.58;11.80;;;0.10;99.90;;;;;;5051039;28;20073;-63
2022/12/12 00:30:50;;;;;;;22.45;12.07;;;0.10;99.90;;;;;;5051382;28;20079;-63
2022/12/12 00:33:18;;;;;;;23.38;13.05;;;0.10;99.90;;;;;;5053186;28;20041;-64
2022/12/12 00:35:46;;;;;;;23.25;12.13;;;0.20;99.90;;;;;;5054533;28;20049;-64
2022/12/12 00:38:12;;;;;;;19.92;10.95;;;0.10;99.90;;;;;;5052897;28;20409;-63
2022/12/12 00:40:39;;;;;;;21.73;11.38;;;0.20;99.90;;;;;;5036779;28;20057;-64
2022/12/12 00:43:06;;;;;;;22.40;12.25;;;0.40;99.90;;;;;;5069998;28;20102;-64
2022/12/12 00:45:33;;;;;;;22.70;11.45;;;0.20;99.90;;;;;;5069708;28;20057;-64
2022/12/12 00:48:00;;;;;;;20.58;11.95;;;0.20;99.90;;;;;;5036690;28;20044;-64
2022/12/12 00:50:28;;;;;;;21.60;11.45;;;0.20;99.90;;;;;;5054491;28;20493;-64
2022/12/12 00:52:56;;;;;;;23.08;12.23;;;0.20;99.90;;;;;;5036972;28;20120;-64
2022/12/12 00:55:24;;;;;;;21.67;11.80;;;0.20;99.90;;;;;;5036282;28;20493;-64
2022/12/12 00:57:51;;;;;;;20.90;12.45;;;0.20;99.90;;;;;;5036419;28;20053;-64
2022/12/12 01:00:18;;;;;;;22.40;11.82;;;0.10;99.90;;;;;;5036664;28;20045;-64
2022/12/12 01:02:45;;;;;;;20.48;11.38;;;0.10;99.90;;;;;;5036189;28;20562;-64
2022/12/12 01:05:13;;;;;;;22.80;12.65;;;0.10;99.90;;;;;;5054321;28;20053;-64
2022/12/12 01:07:42;;;;;;;22.35;12.23;;;0.10;99.90;;;;;;5036586;28;20072;-64
2022/12/12 01:10:09;;;;;;;20.98;11.35;;;0.20;99.90;;;;;;5035976;28;20052;-64
2022/12/12 01:12:37;;;;;;;19.73;11.35;;;0.20;99.90;;;;;;5047570;28;20052;-64
2022/12/12 01:15:06;;;;;;;18.55;10.80;;;0.20;99.90;;;;;;5054194;28;20045;-64
2022/12/12 01:17:36;;;;;;;22.25;12.38;;;0.20;99.90;;;;;;5053485;28;20052;-64
2022/12/12 01:20:04;;;;;;;17.83;11.15;;;0.20;99.90;;;;;;5052425;28;20052;-64
2022/12/12 01:22:31;;;;;;;24.00;12.40;;;0.20;99.90;;;;;;5053869;28;20049;-63
2022/12/12 01:24:59;;;;;;;23.08;12.40;;;0.10;99.90;;;;;;5053545;28;20051;-63
2022/12/12 01:27:26;;;;;;;21.25;11.52;;;0.20;99.90;;;;;;5053960;28;20052;-63
2022/12/12 01:29:54;;;;;;;19.75;11.60;;;0.20;99.90;;;;;;5051533;28;20057;-63
2022/12/12 01:32:21;;;;;;;22.35;10.90;;;0.20;99.90;;;;;;5053936;28;20115;-63
2022/12/12 01:34:48;;;;;;;21.73;11.60;;;1.10;99.90;;;;;;5052126;28;20089;-63
2022/12/12 01:37:15;;;;;;;23.45;12.32;;;0.20;99.90;;;;;;5051623;28;20432;-63
2022/12/12 01:39:42;;;;;;;20.35;11.90;;;0.20;99.90;;;;;;5051387;28;20041;-63
2022/12/12 01:42:14;;;;;;;18.65;10.20;;;0.20;99.90;;;;;;5036221;28;20080;-63
2022/12/12 01:44:44;;;;;;;18.45;11.18;;;0.40;99.90;;;;;;5034952;28;20052;-63
2022/12/12 01:47:13;;;;;;;23.75;12.88;;;0.20;99.90;;;;;;5053664;28;20055;-63
2022/12/12 01:49:42;;;;;;;19.48;11.90;;;0.20;99.90;;;;;;5036095;28;20048;-63
2022/12/12 01:52:14;;;;;;;19.85;11.27;;;0.20;99.90;;;;;;5035723;28;20102;-63
2022/12/12 01:54:43;;;;;;;20.13;10.77;;;0.10;99.90;;;;;;5053596;28;20146;-64
2022/12/12 01:57:15;;;;;;;17.10;10.45;;;0.20;99.90;;;;;;5035907;28;20041;-64
2022/12/12 01:59:44;;;;;;;17.73;10.27;;;0.10;99.90;;;;;;5052479;28;20068;-64
2022/12/12 02:02:11;;;;;;;21.67;11.05;;;0.10;99.90;;;;;;5036074;28;20404;-64
2022/12/12 02:04:38;;;;;;;21.13;10.88;;;0.20;99.90;;;;;;5036321;28;20103;-64
2022/12/12 02:07:05;;;;;;;22.42;11.85;;;0.20;99.90;;;;;;5035314;28;20052;-64
2022/12/12 02:09:33;;;;;;;21.75;11.18;;;0.20;99.90;;;;;;5053163;28;20503;-62
2022/12/12 02:12:00;;;;;;;20.98;10.85;;;0.10;99.90;;;;;;5050178;28;20053;-63
2022/12/12 02:14:30;;;;;;;20.98;11.23;;;0.20;99.90;;;;;;5051400;28;20049;-62
2022/12/12 02:17:19;;;;;;;18.38;10.35;;;0.10;99.90;;;;;;5053032;28;20559;-63
2022/12/12 02:20:24;;;;;;;20.58;11.07;;;0.20;99.90;;;;;;5050176;28;20045;-63
2022/12/12 02:23:13;;;;;;;19.23;10.63;;;0.20;99.90;;;;;;5028737;28;20071;-63
2022/12/12 02:26:14;;;;;;;19.08;10.20;;;0.10;99.90;;;;;;5035300;28;20083;-63
2022/12/12 02:29:06;;;;;;;19.55;11.18;;;0.10;99.90;;;;;;5046867;28;20511;-63
2022/12/12 02:31:39;;;;;;;21.85;11.27;;;0.20;99.90;;;;;;5052846;28;20409;-63
2022/12/12 02:34:13;;;;;;;21.60;11.52;;;0.20;99.90;;;;;;5052172;28;20056;-62
2022/12/12 02:36:47;;;;;;;17.98;10.45;;;0.10;99.90;;;;;;5050552;28;20048;-62
2022/12/12 02:39:22;;;;;;;18.80;11.10;;;0.20;99.90;;;;;;5052933;28;20076;-63
2022/12/12 02:41:54;;;;;;;18.65;9.82;;;0.10;99.90;;;;;;5050169;28;20049;-63
2022/12/12 02:44:28;;;;;;;20.83;10.95;;;0.10;99.90;;;;;;5052630;28;20056;-63
2022/12/12 02:47:03;;;;;;;23.77;11.95;;;0.10;99.90;;;;;;5052597;28;20044;-63
2022/12/12 02:49:35;;;;;;;21.35;11.93;;;0.10;99.90;;;;;;5050821;28;20044;-64
2022/12/12 02:52:03;;;;;;;21.27;10.95;;;0.10;99.90;;;;;;5052324;28;20057;-63
2022/12/12 02:54:30;;;;;;;20.85;11.40;;;0.10;99.90;;;;;;5050269;28;20049;-63
2022/12/12 02:56:59;;;;;;;21.40;11.13;;;0.10;99.90;;;;;;5050339;28;20489;-63
2022/12/12 02:59:29;;;;;;;18.75;10.52;;;0.10;99.90;;;;;;5050520;28;20045;-63
2022/12/12 03:02:17;;;;;;;;;;;0.10;99.90;;;;;;5051764;28;20150;-63
2022/12/12 03:07:49;;;;;;;23.75;10.80;;;0.00;99.90;;;;;;5034651;28;20041;-63
2022/12/12 03:10:31;;;;;;;24.45;12.20;;;0.10;99.90;;;;;;5034115;28;20053;-63
2022/12/12 03:13:08;;;;;;;20.45;10.77;;;0.00;99.90;;;;;;5051028;28;20060;-62
2022/12/12 03:15:44;;;;;;;19.85;9.77;;;0.00;99.90;;;;;;5051677;28;20136;-62
2022/12/12 03:18:24;;;;;;;21.50;11.75;;;0.10;99.90;;;;;;5033925;28;20054;-63
2022/12/12 03:20:57;;;;;;;21.85;11.27;;;0.10;99.90;;;;;;5051915;28;20040;-64
2022/12/12 03:23:28;;;;;;;19.90;10.65;;;0.00;99.90;;;;;;5033652;28;20060;-64
2022/12/12 03:26:00;;;;;;;20.98;11.85;;;0.10;99.90;;;;;;5051871;28;20068;-63
2022/12/12 03:28:32;;;;;;;23.10;11.95;;;0.10;99.90;;;;;;5033975;28;20045;-62
2022/12/12 03:31:05;;;;;;;22.88;11.00;;;0.10;99.90;;;;;;5033463;28;20068;-63
2022/12/12 03:33:41;;;;;;;21.67;11.13;;;0.10;99.90;;;;;;5034217;28;20095;-63
2022/12/12 03:36:13;;;;;;;20.38;10.82;;;0.10;99.90;;;;;;5034212;28;20048;-63
2022/12/12 03:38:43;;;;;;;19.67;10.55;;;0.10;99.90;;;;;;5033619;28;20045;-64
2022/12/12 03:41:15;;;;;;;18.23;10.95;;;0.10;99.90;;;;;;5049676;28;20431;-64
2022/12/12 03:43:46;;;;;;;17.90;10.40;;;0.10;99.90;;;;;;5051076;28;20102;-64
2022/12/12 03:46:18;;;;;;;20.80;10.05;;;0.10;99.90;;;;;;5051944;28;20114;-63
2022/12/12 03:48:50;;;;;;;20.45;10.75;;;0.20;99.90;;;;;;5033743;28;20052;-63
2022/12/12 03:51:21;;;;;;;21.52;11.70;;;0.20;99.90;;;;;;5033333;28;20053;-63
2022/12/12 03:53:53;;;;;;;19.48;11.15;;;0.10;99.90;;;;;;5050100;28;20060;-63
2022/12/12 03:56:25;;;;;;;18.48;10.48;;;0.20;99.90;;;;;;5049558;28;20049;-63
2022/12/12 03:58:55;;;;;;;19.60;10.93;;;0.20;99.90;;;;;;5033175;28;20052;-63
2022/12/12 04:01:27;;;;;;;18.87;11.17;;;0.10;99.90;;;;;;5051348;28;20527;-64
2022/12/12 04:04:03;;;;;;;21.55;11.30;;;0.10;99.90;;;;;;5033834;28;20071;-63
2022/12/12 04:06:34;;;;;;;17.77;10.10;;;0.20;99.90;;;;;;5033400;28;20416;-63
2022/12/12 04:15:07;;;;;;;16.70;9.82;;;0.20;99.90;;;;;;5031958;28;20136;-63
2022/12/12 04:17:41;;;;;;;18.45;9.55;;;0.30;99.90;;;;;;5055620;28;20045;-63
2022/12/12 04:23:17;;;;;;;18.08;10.27;;;0.20;99.90;;;;;;5036825;28;20049;-63
2022/12/12 04:29:02;;;;;;;19.42;9.45;;;0.20;99.90;;;;;;5037240;28;20044;-63
2022/12/12 04:31:32;;;;;;;19.95;9.73;;;0.30;99.90;;;;;;5036949;28;20182;-63
2022/12/12 04:34:05;;;;;;;19.23;10.80;;;0.20;99.90;;;;;;5054632;28;20053;-63
2022/12/12 04:36:35;;;;;;;19.45;10.50;;;0.20;99.90;;;;;;5037168;28;20049;-64
2022/12/12 04:39:05;;;;;;;18.67;10.45;;;0.20;99.90;;;;;;5055177;28;20072;-64
2022/12/12 04:41:34;;;;;;;18.58;9.93;;;0.20;99.90;;;;;;5036301;28;20484;-64
2022/12/12 04:44:05;;;;;;;18.08;10.10;;;0.20;99.90;;;;;;5036742;28;20381;-65
2022/12/12 04:46:33;;;;;;;18.65;10.35;;;0.20;99.90;;;;;;5037078;28;21357;-64
2022/12/12 04:49:05;;;;;;;21.73;10.73;;;0.20;99.90;;;;;;5054246;28;20044;-64
2022/12/12 04:51:37;;;;;;;16.02;10.02;;;0.20;99.90;;;;;;5034985;28;20057;-64
2022/12/12 04:54:10;;;;;;;21.88;10.93;;;0.20;99.90;;;;;;5051917;28;20416;-64
2022/12/12 04:56:39;;;;;;;20.00;10.48;;;0.30;99.90;;;;;;5052556;28;20045;-64
2022/12/12 04:59:07;;;;;;;18.08;9.85;;;0.20;99.90;;;;;;5054636;28;20099;-63
2022/12/12 05:01:44;;;;;;;21.83;11.27;;;0.30;99.90;;;;;;5053914;28;20057;-63
2022/12/12 05:04:20;;;;;;;21.30;10.60;;;0.10;99.90;;;;;;5035107;28;20045;-63
2022/12/12 05:06:53;;;;;;;19.77;10.05;;;0.10;99.90;;;;;;5053419;28;20374;-62
2022/12/12 05:09:21;;;;;;;20.73;10.23;;;0.20;99.90;;;;;;5034470;28;20048;-63
2022/12/12 05:11:48;;;;;;;18.35;9.85;;;0.10;99.90;;;;;;5036227;28;20045;-63
2022/12/12 05:14:17;;;;;;;19.77;10.98;;;0.10;99.90;;;;;;5054330;28;20415;-63
2022/12/12 05:16:47;;;;;;;20.27;10.35;;;0.20;99.90;;;;;;5034228;28;20061;-63
2022/12/12 05:19:14;;;;;;;22.03;11.50;;;0.10;99.90;;;;;;5053835;28;20045;-63
2022/12/12 05:21:41;;;;;;;18.30;10.48;;;0.10;99.90;;;;;;5036067;28;20053;-62
2022/12/12 05:24:09;;;;;;;21.17;10.90;;;0.10;99.90;;;;;;5053575;28;20386;-63
2022/12/12 05:26:36;;;;;;;23.10;10.27;;;0.10;99.90;;;;;;5036410;28;20057;-63
2022/12/12 05:29:04;;;;;;;20.27;10.88;;;0.10;99.90;;;;;;5033624;28;20492;-63
2022/12/12 05:31:31;;;;;;;21.65;11.68;;;0.10;99.90;;;;;;5035981;28;20084;-63
2022/12/12 05:33:58;;;;;;;20.25;10.68;;;0.10;99.90;;;;;;5036011;28;20488;-64
2022/12/12 05:36:25;;;;;;;21.40;11.23;;;0.10;99.90;;;;;;5035556;28;20434;-63
2022/12/12 05:38:52;;;;;;;18.02;9.57;;;0.10;99.90;;;;;;5036098;28;20111;-64
2022/12/12 05:41:20;;;;;;;22.38;11.25;;;0.10;99.90;;;;;;5053604;28;20111;-64
2022/12/12 05:43:47;;;;;;;19.13;10.75;;;0.00;99.90;;;;;;5053063;28;20059;-63
2022/12/12 05:46:14;;;;;;;17.13;10.27;;;0.00;99.90;;;;;;5036153;28;20045;-64
2022/12/12 05:48:42;;;;;;;20.15;10.65;;;0.00;99.90;;;;;;5035768;28;20980;-64
2022/12/12 05:51:08;;;;;;;19.15;11.02;;;0.00;99.90;;;;;;5035263;28;20131;-63
2022/12/12 05:53:35;;;;;;;18.70;10.48;;;0.00;99.90;;;;;;5068578;28;20045;-64
2022/12/12 05:56:05;;;;;;;22.60;11.32;;;0.00;99.90;;;;;;5050274;28;20456;-64
2022/12/12 05:58:33;;;;;;;20.33;10.02;;;0.10;99.90;;;;;;5039046;28;20049;-63
2022/12/12 06:01:04;;;;;;;18.35;10.55;;;0.00;99.90;;;;;;5050599;28;20049;-69
2022/12/12 06:03:31;;;;;;;20.00;10.80;;;0.00;99.90;;;;;;5031921;28;20060;-64
2022/12/12 06:05:58;;;;;;;20.60;11.38;;;0.00;99.90;;;;;;5048278;28;20130;-64
2022/12/12 06:08:25;;;;;;;19.88;9.93;;;0.00;99.90;;;;;;5031030;28;20049;-64
2022/12/12 06:10:52;;;;;;;18.20;9.65;;;0.10;99.90;;;;;;5030309;28;20451;-63
2022/12/12 06:13:19;;;;;;;19.70;10.23;;;0.00;99.90;;;;;;5047422;28;20055;-63
2022/12/12 06:15:47;;;;;;;22.20;11.55;;;0.10;99.90;;;;;;5029100;28;20057;-64
2022/12/12 06:18:14;;;;;;;18.00;10.27;;;0.00;99.90;;;;;;5031284;28;20172;-63
2022/12/12 06:20:41;;;;;;;20.70;10.43;;;0.10;99.90;;;;;;5049387;28;20045;-63
2022/12/12 06:23:08;;;;;;;17.65;11.02;;;0.00;99.90;;;;;;5047283;28;20049;-63
2022/12/12 06:25:35;;;;;;;17.20;10.15;;;0.00;99.90;;;;;;5027660;28;20053;-63
2022/12/12 06:28:02;;;;;;;19.27;10.82;;;0.10;99.90;;;;;;5047803;28;20049;-64
2022/12/12 06:30:29;;;;;;;20.35;11.23;;;0.10;99.90;;;;;;5047184;28;20087;-63
2022/12/12 06:32:57;;;;;;;19.33;10.50;;;0.10;99.90;;;;;;5030302;28;20052;-63
2022/12/12 06:35:24;;;;;;;19.27;10.73;;;0.00;99.90;;;;;;5048708;28;20103;-63
2022/12/12 06:37:51;;;;;;;19.02;10.48;;;0.00;99.90;;;;;;5045237;28;20045;-63
2022/12/12 06:40:18;;;;;;;22.55;11.45;;;0.00;99.90;;;;;;5044130;28;20045;-64
2022/12/12 06:42:45;;;;;;;18.38;10.07;;;0.00;99.90;;;;;;5031335;28;20098;-66
2022/12/12 06:45:11;;;;;;;21.67;10.90;;;0.00;99.90;;;;;;5030565;28;20044;-67
2022/12/12 06:47:39;;;;;;;18.33;10.68;;;0.00;99.90;;;;;;5048073;28;20123;-66
2022/12/12 06:50:08;;;;;;;20.13;10.02;;;-0.10;99.90;;;;;;5029347;28;20052;-66
2022/12/12 06:52:34;;;;;;;19.65;10.82;;;-0.10;99.90;;;;;;5029301;28;20057;-66
2022/12/12 06:55:01;;;;;;;22.00;10.90;;;-0.10;99.90;;;;;;5027781;28;20049;-66
2022/12/12 06:57:28;;;;;;;21.10;11.60;;;-0.10;99.90;;;;;;5029421;28;20238;-63
2022/12/12 06:59:55;;;;;;;21.35;10.52;;;-0.10;99.90;;;;;;5047063;28;20094;-66
2022/12/12 07:02:22;;;;;;;19.63;10.75;;;-0.10;99.90;;;;;;5029823;28;20550;-65
2022/12/12 07:04:49;;;;;;;21.50;10.52;;;-0.10;99.90;;;;;;5030361;28;20048;-63
2022/12/12 07:07:17;;;;;;;20.65;11.55;;;-0.10;99.90;;;;;;5046682;28;20044;-63
2022/12/12 07:09:45;;;;;;;20.88;10.63;;;-0.10;99.90;;;;;;5027984;28;20497;-63
2022/12/12 07:12:12;;;;;;;18.02;10.60;;;0.00;99.90;;;;;;5025832;28;20540;-63
2022/12/12 07:14:40;;;;;;;20.05;10.88;;;0.00;99.90;;;;;;5024760;28;20083;-63
2022/12/12 07:17:07;;;;;;;21.67;10.80;;;0.00;99.90;;;;;;5049848;28;20048;-63
2022/12/12 07:19:33;;;;;;;19.65;10.95;;;0.00;99.90;;;;;;5027741;28;20056;-63
2022/12/12 07:22:00;;;;;;;20.20;10.85;;;0.00;99.90;;;;;;5021460;28;20057;-63
2022/12/12 07:24:29;;;;;;;23.58;11.90;;;0.20;99.90;;;;;;5044341;28;20098;-63
2022/12/12 07:26:56;;;;;;;18.65;9.65;;;0.10;99.90;;;;;;5033036;28;20053;-63
2022/12/12 07:29:23;;;;;;;17.40;10.20;;;0.10;99.90;;;;;;5025950;28;20091;-63
2022/12/12 07:31:49;;;;;;;18.70;10.05;;;0.10;99.90;;;;;;5045138;28;20049;-63
2022/12/12 07:34:16;;;;;;;19.08;10.55;;;0.10;99.90;;;;;;5027798;28;20100;-63
2022/12/12 07:36:43;;;;;;;18.73;11.10;;;0.10;99.90;;;;;;5027517;28;20052;-63
2022/12/12 07:39:10;;;;;;;18.05;9.90;;;0.10;99.90;;;;;;5044777;28;20053;-63
2022/12/12 07:41:38;;;;;;;19.27;11.02;;;0.10;99.90;;;;;;5044211;28;20064;-63
2022/12/12 07:44:05;;;;;;;19.83;10.85;;;0.30;99.90;;;;;;5045976;28;20072;-63
2022/12/12 07:46:32;;;;;;;19.73;11.00;;;0.20;99.90;;;;;;5031889;28;20057;-64
2022/12/12 07:48:59;;;;;;;23.45;11.43;;;0.20;99.90;;;;;;5031594;28;20052;-63
2022/12/12 07:51:26;;;;;;;18.10;10.88;;;0.20;99.90;;;;;;5029149;28;20045;-63
2022/12/12 07:53:53;;;;;;;20.80;11.32;;;0.30;99.90;;;;;;5049409;28;20045;-63
2022/12/12 07:56:20;;;;;;;18.95;11.50;;;0.40;99.90;;;;;;5048936;28;20842;-64
2022/12/12 07:58:49;;;;;;;18.85;10.77;;;0.30;99.90;;;;;;5032158;28;20114;-63
2022/12/12 08:01:19;;;;;;;17.48;10.40;;;0.40;99.90;;;;;;5028900;28;20075;-63
2022/12/12 08:03:47;;;;;;;17.77;9.93;;;0.40;99.90;;;;;;5051523;28;20524;-63
2022/12/12 08:06:16;;;;;;;22.20;11.65;;;0.30;99.90;;;;;;5032006;28;20056;-64
2022/12/12 08:08:43;;;;;;;18.10;10.68;;;0.30;99.90;;;;;;5029879;28;20448;-64
2022/12/12 08:11:12;;;;;;;18.30;10.10;;;0.20;99.90;;;;;;5031367;28;20056;-64
2022/12/12 08:13:40;;;;;;;21.80;12.30;;;0.20;99.90;;;;;;5026773;28;20053;-63
2022/12/12 08:16:14;;;;;;;19.48;11.25;;;0.20;99.90;;;;;;5032408;28;20106;-64
2022/12/12 08:18:41;;;;;;;22.25;10.95;;;0.20;99.90;;;;;;5028100;28;20139;-64
2022/12/12 08:21:09;;;;;;;17.95;10.13;;;0.20;99.90;;;;;;5048694;28;20047;-64
2022/12/12 08:23:36;;;;;;;21.00;11.32;;;0.20;99.90;;;;;;5032120;28;20056;-64
2022/12/12 08:26:05;;;;;;;17.58;10.00;;;0.30;99.90;;;;;;5046348;28;20048;-64
2022/12/12 08:28:32;;;;;;;20.98;11.43;;;0.20;99.90;;;;;;5032737;28;20382;-64
2022/12/12 08:30:59;;;;;;;18.45;11.02;;;0.30;99.90;;;;;;5050046;28;20041;-64
2022/12/12 08:33:27;;;;;;;19.42;10.82;;;0.30;99.90;;;;;;5051132;28;20049;-65
2022/12/12 08:35:54;;;;;;;17.20;10.32;;;0.20;99.90;;;;;;5045967;28;20698;-64
2022/12/12 08:38:21;;;;;;;22.50;11.10;;;0.30;99.90;;;;;;5047372;28;20454;-64
2022/12/12 08:40:48;;;;;;;19.85;10.82;;;0.20;99.90;;;;;;5048915;28;20056;-65
2022/12/12 08:43:15;;;;;;;17.90;10.73;;;0.30;99.90;;;;;;5032446;28;20492;-65
2022/12/12 08:45:42;;;;;;;18.55;10.55;;;0.40;99.90;;;;;;5049051;28;20106;-65
2022/12/12 08:48:11;;;;;;;19.98;11.10;;;0.50;99.90;;;;;;5047910;28;20484;-65
2022/12/12 08:50:41;;;;;;;20.92;11.93;;;0.30;99.90;;;;;;5046861;28;20388;-65
2022/12/12 08:53:08;;;;;;;17.75;9.90;;;0.40;99.90;;;;;;5048160;28;20407;-65
2022/12/12 08:55:35;;;;;;;20.25;11.23;;;0.50;99.90;;;;;;5032296;28;20091;-65
2022/12/12 08:58:02;;;;;;;18.15;10.23;;;0.50;99.90;;;;;;5028132;28;20080;-65
2022/12/12 09:00:29;;;;;;;20.52;11.13;;;0.50;99.90;;;;;;5030791;28;20056;-64
2022/12/12 09:02:56;;;;;;;18.10;11.32;;;0.60;99.90;;;;;;5048659;28;20052;-65
2022/12/12 09:05:23;;;;;;;19.70;11.45;;;0.70;99.90;;;;;;5049856;28;20045;-65
2022/12/12 09:07:51;;;;;;;19.67;11.32;;;0.70;99.90;;;;;;5044945;28;20071;-65
2022/12/12 09:10:18;;;;;;;18.90;11.27;;;0.80;99.90;;;;;;5026899;28;20054;-75
2022/12/12 09:12:45;;;;;;;20.73;11.85;;;0.80;99.90;;;;;;5049439;28;20064;-65
2022/12/12 09:15:13;;;;;;;19.55;11.40;;;0.80;99.90;;;;;;5049197;28;20500;-64
2022/12/12 09:17:40;;;;;;;19.98;11.23;;;0.90;99.90;;;;;;5028737;28;20053;-65
2022/12/12 09:20:07;;;;;;;22.48;10.93;;;0.90;99.90;;;;;;5029345;28;20497;-65
2022/12/12 09:22:34;;;;;;;19.23;10.88;;;0.90;99.90;;;;;;5030081;28;20048;-65
2022/12/12 09:25:02;;;;;;;17.13;10.57;;;1.00;99.90;;;;;;5032421;28;20079;-64
2022/12/12 09:27:29;;;;;;;18.13;10.77;;;1.00;99.90;;;;;;5047612;28;20480;-64
2022/12/12 09:29:56;;;;;;;18.40;11.27;;;1.10;99.90;;;;;;5045777;28;20059;-65
2022/12/12 09:32:23;;;;;;;20.45;11.05;;;1.20;99.90;;;;;;5047690;28;20380;-65
2022/12/12 09:34:50;;;;;;;19.90;10.52;;;1.30;99.90;;;;;;5029806;28;20412;-65
2022/12/12 09:37:17;;;;;;;20.05;11.35;;;1.50;99.90;;;;;;5044718;28;20044;-64
2022/12/12 09:39:44;;;;;;;20.38;11.65;;;1.60;99.90;;;;;;5027302;28;20428;-64
2022/12/12 09:42:20;;;;;;;21.85;12.35;;;1.60;99.90;;;;;;5030003;28;20045;-64
2022/12/12 09:44:48;;;;;;;19.77;10.68;;;1.60;99.90;;;;;;5047998;28;20045;-65
2022/12/12 09:47:19;;;;;;;21.45;11.90;;;1.80;99.90;;;;;;5030865;28;20057;-65
2022/12/12 09:49:47;;;;;;;;;;;1.90;99.90;;;;;;5025526;28;20063;-65
2022/12/12 09:52:16;;;;;;;19.67;11.02;;;2.00;99.90;;;;;;5046143;28;19920;-64
2022/12/12 09:54:43;;;;;;;17.92;11.02;;;2.10;99.90;;;;;;5047136;28;20099;-64
2022/12/12 09:57:29;;;;;;;17.10;10.55;;;2.50;99.90;;;;;;5030807;28;20045;-65
2022/12/12 10:00:02;;;;;;;18.42;10.10;;;2.80;99.90;;;;;;5033952;28;20049;-65
2022/12/12 10:02:56;;;;;;;15.35;10.50;;;2.90;99.90;;;;;;5029623;28;20052;-65
2022/12/12 10:05:33;;;;;;;18.38;9.77;;;3.10;99.90;;;;;;5047741;28;20053;-65
2022/12/12 10:08:06;;;;;;;17.20;10.40;;;3.60;99.90;;;;;;5047671;28;20048;-65
2022/12/12 10:10:36;;;;;;;16.23;10.07;;;3.90;99.90;;;;;;5031320;28;20098;-65
2022/12/12 10:13:10;;;;;;;17.85;10.77;;;4.10;99.90;;;;;;5047764;28;20045;-65
2022/12/12 10:15:39;;;;;;;18.00;10.77;;;4.10;99.90;;;;;;5029023;28;20080;-66
2022/12/12 10:18:12;;;;;;;16.58;10.88;;;4.40;99.90;;;;;;5026594;28;20059;-65
2022/12/12 10:20:47;;;;;;;17.70;11.05;;;4.70;99.90;;;;;;5045673;28;20044;-65
2022/12/12 10:23:22;;;;;;;16.20;9.95;;;5.00;99.90;;;;;;5026383;28;20405;-65
2022/12/12 10:25:55;;;;;;;16.33;10.15;;;6.10;99.90;;;;;;5031968;28;20102;-65
2022/12/12 10:28:26;;;;;;;17.70;10.90;;;7.30;99.90;;;;;;5026571;28;20060;-65
2022/12/12 10:31:01;;;;;;;;;;;7.70;99.90;;;;;;5045850;28;20053;-64
2022/12/12 10:33:40;;;;;;;18.77;11.45;;;8.10;99.90;;;;;;5044638;28;19968;-64
2022/12/12 10:36:19;;;;;;;15.13;10.32;;;8.60;99.90;;;;;;5048849;28;20060;-64
2022/12/12 10:39:00;;;;;;;14.43;10.60;;;9.70;96.10;;;;;;5044442;28;20746;-64
2022/12/12 10:41:35;;;;;;;16.60;11.07;;;10.30;99.50;;;;;;5044302;28;20040;-65
2022/12/12 10:44:12;;;;;;;15.60;10.73;;;10.30;98.20;;;;;;5043960;28;20046;-65
2022/12/12 10:46:43;;;;;;;19.52;11.57;;;10.00;96.60;;;;;;5026987;28;20362;-64
2022/12/12 10:49:15;;;;;;;16.45;11.27;;;9.90;99.10;;;;;;5044124;28;20048;-65
2022/12/12 10:51:43;;;;;;;25.10;11.43;;;9.70;95.00;;;;;;5045755;28;20053;-64
2022/12/12 10:54:18;;;;;;;15.55;10.23;;;9.20;96.80;;;;;;5029054;28;20045;-65
2022/12/12 10:57:07;;;;;;;13.98;9.93;;;9.10;97.70;;;;;;5029412;28;20048;-64
2022/12/12 10:59:44;;;;;;;16.30;10.15;;;9.10;94.50;;;;;;5026266;28;20056;-64
2022/12/12 11:02:27;;;;;;;15.63;10.77;;;9.30;95.90;;;;;;5027747;28;20045;-63
2022/12/12 11:05:09;;;;;;;15.73;10.20;;;9.00;96.30;;;;;;5046951;28;20045;-64
2022/12/12 11:07:38;;;;;;;15.05;10.43;;;8.40;97.70;;;;;;5045378;28;20358;-64
2022/12/12 11:10:24;;;;;;;16.55;10.48;;;8.10;98.80;;;;;;5029305;28;20385;-63
2022/12/12 11:12:59;;;;;;;14.82;10.07;;;7.50;98.20;;;;;;5030770;28;20053;-63
2022/12/12 11:15:37;;;;;;;14.95;10.35;;;7.30;99.80;;;;;;5028784;28;20444;-64
2022/12/12 11:18:04;;;;;;;18.00;10.32;;;7.00;99.90;;;;;;5028739;28;20103;-66
2022/12/12 11:20:31;;;;;;;16.63;10.80;;;7.10;99.90;;;;;;5046487;28;20041;-63
2022/12/12 11:22:58;;;;;;;15.93;10.52;;;7.90;99.90;;;;;;5024966;28;20044;-64
2022/12/12 11:25:28;;;;;;;14.25;10.18;;;8.10;99.80;;;;;;5045848;28;20049;-64
2022/12/12 11:27:57;;;;;;;14.63;9.98;;;8.30;98.90;;;;;;5047181;28;20049;-64
2022/12/12 11:30:32;;;;;;;16.02;10.38;;;8.40;97.50;;;;;;5032388;28;20114;-65
2022/12/12 11:32:59;;;;;;;16.52;10.00;;;8.40;97.20;;;;;;5031078;28;20403;-64
2022/12/12 11:35:30;;;;;;;14.00;9.88;;;8.70;99.00;;;;;;5043742;28;20052;-64
2022/12/12 11:38:01;;;;;;;16.38;10.95;;;9.10;97.60;;;;;;5043920;28;20061;-64
2022/12/12 11:40:30;;;;;;;15.07;9.50;;;8.90;95.60;;;;;;5028679;28;20049;-64
2022/12/12 11:43:24;;;;;;;13.80;9.30;;;8.50;97.80;;;;;;5029096;28;20049;-64
2022/12/12 11:46:01;;;;;;;15.38;10.38;;;8.00;97.50;;;;;;5042895;28;20091;-64
2022/12/12 11:48:34;;;;;;;16.27;10.25;;;7.20;97.60;;;;;;5030357;28;20046;-64
2022/12/12 11:51:01;;;;;;;14.85;10.40;;;7.00;99.40;;;;;;5028059;28;20103;-64
2022/12/12 11:53:28;;;;;;;13.98;9.20;;;7.50;98.40;;;;;;5029587;28;20132;-64
2022/12/12 11:56:08;;;;;;;15.48;10.05;;;8.20;98.90;;;;;;5029893;28;20053;-64
2022/12/12 11:58:43;;;;;;;15.40;10.07;;;8.40;98.50;;;;;;5046341;28;20065;-64
2022/12/12 12:01:21;;;;;;;14.52;9.35;;;8.80;96.60;;;;;;5042843;28;20045;-64
2022/12/12 12:04:24;;;;;;;14.30;10.23;;;9.10;95.00;;;;;;5029234;28;20511;-64
2022/12/12 12:07:05;;;;;;;14.88;9.40;;;8.80;94.60;;;;;;5025528;28;20107;-63
2022/12/12 12:09:40;;;;;;;12.57;9.35;;;8.40;95.90;;;;;;5028092;28;20045;-64
2022/12/12 12:12:12;;;;;;;14.35;9.82;;;8.20;96.10;;;;;;5048786;28;20460;-63
2022/12/12 12:15:07;;;;;;;14.05;9.77;;;8.20;97.40;;;;;;5032693;28;20539;-64
2022/12/12 12:17:54;;;;;;;15.05;9.05;;;7.80;96.20;;;;;;5032354;28;20057;-64
2022/12/12 12:20:25;;;;;;;15.50;10.48;;;7.60;98.20;;;;;;5033419;28;20447;-64
2022/12/12 12:23:04;;;;;;;14.07;9.68;;;7.30;97.80;;;;;;5033286;28;20052;-63
2022/12/12 12:25:40;;;;;;;13.38;9.70;;;7.30;98.50;;;;;;5050041;28;20541;-64
2022/12/12 12:28:46;;;;;;;13.02;8.80;;;7.20;99.40;;;;;;5033805;28;20053;-63
2022/12/12 12:31:21;;;;;;;13.93;9.10;;;7.60;98.30;;;;;;5054798;28;20048;-64
2022/12/12 12:34:02;;;;;;;15.77;9.57;;;7.30;98.10;;;;;;5029785;28;20051;-64
2022/12/12 12:36:38;;;;;;;16.15;9.75;;;7.10;98.60;;;;;;5037449;28;20056;-64
2022/12/12 12:39:19;;;;;;;14.75;10.00;;;6.30;99.50;;;;;;5036771;28;20061;-64
2022/12/12 12:42:09;;;;;;;14.65;9.82;;;5.90;99.90;;;;;;5036270;28;20509;-64
2022/12/12 12:44:45;;;;;;;13.30;9.18;;;5.50;99.90;;;;;;5054150;28;20447;-64
2022/12/12 12:47:25;;;;;;;14.18;9.48;;;5.30;99.90;;;;;;5036340;28;20103;-64
2022/12/12 12:49:58;;;;;;;14.93;9.35;;;5.50;99.90;;;;;;5054365;28;20171;-64
2022/12/12 12:52:31;;;;;;;14.13;9.68;;;5.40;99.90;;;;;;5036307;28;20042;-64
2022/12/12 12:54:59;;;;;;;13.52;9.80;;;5.20;99.90;;;;;;5036544;28;20114;-64
2022/12/12 12:57:30;;;;;;;17.10;10.82;;;4.80;99.90;;;;;;5036981;28;20045;-65
2022/12/12 13:00:01;;;;;;;15.70;10.30;;;4.60;99.90;;;;;;5051814;28;20045;-64
2022/12/12 13:02:38;;;;;;;14.15;8.52;;;4.30;99.90;;;;;;5054662;28;20052;-65
2022/12/12 13:05:12;;;;;;;16.30;10.40;;;4.10;99.90;;;;;;5054774;28;20048;-65
2022/12/12 13:07:45;;;;;;;14.65;9.88;;;3.80;99.90;;;;;;5054042;28;20045;-64
2022/12/12 13:10:20;;;;;;;18.13;12.15;;;3.60;99.90;;;;;;5054259;28;20049;-65
2022/12/12 13:12:52;;;;;;;14.77;9.68;;;3.60;99.90;;;;;;5044581;28;20494;-65